sensor_id;sensor_type;location;lat;lon;timestamp;temperature;humidity
64937;SHT30;51452;47.698;19.050;2022-11-24T00:01:07;7.28;78.54
64937;SHT30;51452;47.698;19.050;2022-11-24T00:03:33;7.37;78.49
64937;SHT30;51452;47.698;19.050;2022-11-24T00:06:07;7.34;78.57
64937;SHT30;51452;47.698;19.050;2022-11-24T00:08:34;7.41;78.79
64937;SHT30;51452;47.698;19.050;2022-11-24T00:11:14;7.33;78.92
64937;SHT30;51452;47.698;19.050;2022-11-24T00:13:40;7.37;79.24
64937;SHT30;51452;47.698;19.050;2022-11-24T00:16:11;7.30;79.23
64937;SHT30;51452;47.698;19.050;2022-11-24T00:18:38;7.28;79.49
64937;SHT30;51452;47.698;19.050;2022-11-24T00:21:03;7.28;79.75
64937;SHT30;51452;47.698;19.050;2022-11-24T00:23:29;7.20;80.19
64937;SHT30;51452;47.698;19.050;2022-11-24T00:25:54;7.27;79.85
64937;SHT30;51452;47.698;19.050;2022-11-24T00:28:19;7.24;80.14
64937;SHT30;51452;47.698;19.050;2022-11-24T00:30:45;7.24;80.18
64937;SHT30;51452;47.698;19.050;2022-11-24T00:33:10;7.26;79.98
64937;SHT30;51452;47.698;19.050;2022-11-24T00:35:36;7.28;80.14
64937;SHT30;51452;47.698;19.050;2022-11-24T00:38:01;7.21;80.03
64937;SHT30;51452;47.698;19.050;2022-11-24T00:40:26;7.30;79.92
64937;SHT30;51452;47.698;19.050;2022-11-24T00:42:52;7.27;79.87
64937;SHT30;51452;47.698;19.050;2022-11-24T00:45:17;7.31;79.76
64937;SHT30;51452;47.698;19.050;2022-11-24T00:47:42;7.19;79.88
64937;SHT30;51452;47.698;19.050;2022-11-24T00:50:08;7.30;79.67
64937;SHT30;51452;47.698;19.050;2022-11-24T00:52:33;7.31;79.71
64937;SHT30;51452;47.698;19.050;2022-11-24T00:54:59;7.27;79.62
64937;SHT30;51452;47.698;19.050;2022-11-24T00:57:24;7.26;79.85
64937;SHT30;51452;47.698;19.050;2022-11-24T00:59:49;7.28;79.98
64937;SHT30;51452;47.698;19.050;2022-11-24T01:02:15;7.30;79.98
64937;SHT30;51452;47.698;19.050;2022-11-24T01:04:40;7.35;79.64
64937;SHT30;51452;47.698;19.050;2022-11-24T01:07:05;7.37;79.62
64937;SHT30;51452;47.698;19.050;2022-11-24T01:09:31;7.40;79.65
64937;SHT30;51452;47.698;19.050;2022-11-24T01:11:56;7.35;79.71
64937;SHT30;51452;47.698;19.050;2022-11-24T01:14:29;7.40;79.60
64937;SHT30;51452;47.698;19.050;2022-11-24T01:16:55;7.43;79.64
64937;SHT30;51452;47.698;19.050;2022-11-24T01:19:21;7.37;79.93
64937;SHT30;51452;47.698;19.050;2022-11-24T01:21:46;7.47;79.75
64937;SHT30;51452;47.698;19.050;2022-11-24T01:24:12;7.31;80.04
64937;SHT30;51452;47.698;19.050;2022-11-24T01:26:38;7.33;80.02
64937;SHT30;51452;47.698;19.050;2022-11-24T01:29:04;7.26;80.67
64937;SHT30;51452;47.698;19.050;2022-11-24T01:31:29;7.28;80.42
64937;SHT30;51452;47.698;19.050;2022-11-24T01:33:54;7.24;80.50
64937;SHT30;51452;47.698;19.050;2022-11-24T01:36:20;7.34;80.27
64937;SHT30;51452;47.698;19.050;2022-11-24T01:38:46;7.26;80.21
64937;SHT30;51452;47.698;19.050;2022-11-24T01:41:14;7.37;79.96
64937;SHT30;51452;47.698;19.050;2022-11-24T01:43:41;7.41;79.93
64937;SHT30;51452;47.698;19.050;2022-11-24T01:48:45;7.40;79.38
64937;SHT30;51452;47.698;19.050;2022-11-24T01:51:16;7.33;79.12
64937;SHT30;51452;47.698;19.050;2022-11-24T01:53:47;7.34;79.20
64937;SHT30;51452;47.698;19.050;2022-11-24T01:56:13;7.33;79.26
64937;SHT30;51452;47.698;19.050;2022-11-24T01:58:41;7.34;79.34
64937;SHT30;51452;47.698;19.050;2022-11-24T02:01:08;7.30;79.38
64937;SHT30;51452;47.698;19.050;2022-11-24T02:03:36;7.33;79.31
64937;SHT30;51452;47.698;19.050;2022-11-24T02:06:12;7.28;79.21
64937;SHT30;51452;47.698;19.050;2022-11-24T02:09:04;7.27;79.30
64937;SHT30;51452;47.698;19.050;2022-11-24T02:11:37;7.33;79.08
64937;SHT30;51452;47.698;19.050;2022-11-24T02:14:04;7.38;78.96
64937;SHT30;51452;47.698;19.050;2022-11-24T02:16:33;7.35;79.23
64937;SHT30;51452;47.698;19.050;2022-11-24T02:18:59;7.37;78.77
64937;SHT30;51452;47.698;19.050;2022-11-24T02:21:25;7.37;78.97
64937;SHT30;51452;47.698;19.050;2022-11-24T02:24:00;7.41;78.80
64937;SHT30;51452;47.698;19.050;2022-11-24T02:26:45;7.38;78.61
64937;SHT30;51452;47.698;19.050;2022-11-24T02:29:12;7.47;78.61
64937;SHT30;51452;47.698;19.050;2022-11-24T02:31:40;7.47;78.47
64937;SHT30;51452;47.698;19.050;2022-11-24T02:34:08;7.52;78.59
64937;SHT30;51452;47.698;19.050;2022-11-24T02:36:33;7.43;78.29
64937;SHT30;51452;47.698;19.050;2022-11-24T02:38:58;7.47;78.09
64937;SHT30;51452;47.698;19.050;2022-11-24T02:41:25;7.52;78.60
64937;SHT30;51452;47.698;19.050;2022-11-24T02:43:54;7.60;78.14
64937;SHT30;51452;47.698;19.050;2022-11-24T02:46:20;7.52;78.14
64937;SHT30;51452;47.698;19.050;2022-11-24T02:48:46;7.46;78.28
64937;SHT30;51452;47.698;19.050;2022-11-24T02:51:11;7.50;78.51
64937;SHT30;51452;47.698;19.050;2022-11-24T02:53:37;7.51;78.63
64937;SHT30;51452;47.698;19.050;2022-11-24T02:56:02;7.50;78.58
64937;SHT30;51452;47.698;19.050;2022-11-24T02:58:27;7.46;78.63
64937;SHT30;51452;47.698;19.050;2022-11-24T03:00:53;7.31;78.49
64937;SHT30;51452;47.698;19.050;2022-11-24T03:03:22;7.27;78.80
64937;SHT30;51452;47.698;19.050;2022-11-24T03:05:48;7.19;79.51
64937;SHT30;51452;47.698;19.050;2022-11-24T03:08:13;7.19;79.49
64937;SHT30;51452;47.698;19.050;2022-11-24T03:10:38;7.06;79.77
64937;SHT30;51452;47.698;19.050;2022-11-24T03:13:04;7.03;79.75
64937;SHT30;51452;47.698;19.050;2022-11-24T03:15:29;6.93;80.01
64937;SHT30;51452;47.698;19.050;2022-11-24T03:17:55;6.95;80.01
64937;SHT30;51452;47.698;19.050;2022-11-24T03:20:24;6.99;80.23
64937;SHT30;51452;47.698;19.050;2022-11-24T03:22:49;6.93;79.98
64937;SHT30;51452;47.698;19.050;2022-11-24T03:25:15;6.95;79.58
64937;SHT30;51452;47.698;19.050;2022-11-24T03:27:40;6.86;79.73
64937;SHT30;51452;47.698;19.050;2022-11-24T03:30:06;6.72;79.94
64937;SHT30;51452;47.698;19.050;2022-11-24T03:32:32;6.75;80.15
64937;SHT30;51452;47.698;19.050;2022-11-24T03:34:58;6.81;79.90
64937;SHT30;51452;47.698;19.050;2022-11-24T03:37:23;6.79;80.12
64937;SHT30;51452;47.698;19.050;2022-11-24T03:39:48;6.81;79.75
64937;SHT30;51452;47.698;19.050;2022-11-24T03:42:14;6.78;79.90
64937;SHT30;51452;47.698;19.050;2022-11-24T03:44:39;6.72;79.75
64937;SHT30;51452;47.698;19.050;2022-11-24T03:47:04;6.78;79.64
64937;SHT30;51452;47.698;19.050;2022-11-24T03:49:30;6.73;79.80
64937;SHT30;51452;47.698;19.050;2022-11-24T03:51:55;6.64;79.98
64937;SHT30;51452;47.698;19.050;2022-11-24T03:54:21;6.49;80.32
64937;SHT30;51452;47.698;19.050;2022-11-24T03:56:46;6.34;80.68
64937;SHT30;51452;47.698;19.050;2022-11-24T03:59:11;6.32;80.94
64937;SHT30;51452;47.698;19.050;2022-11-24T04:01:37;6.35;80.85
64937;SHT30;51452;47.698;19.050;2022-11-24T04:04:02;6.35;80.90
64937;SHT30;51452;47.698;19.050;2022-11-24T04:06:27;6.28;80.67
64937;SHT30;51452;47.698;19.050;2022-11-24T04:08:53;6.41;80.69
64937;SHT30;51452;47.698;19.050;2022-11-24T04:11:18;6.35;80.44
64937;SHT30;51452;47.698;19.050;2022-11-24T04:14:02;6.44;80.15
64937;SHT30;51452;47.698;19.050;2022-11-24T04:16:28;6.42;79.86
64937;SHT30;51452;47.698;19.050;2022-11-24T04:18:53;6.37;79.55
64937;SHT30;51452;47.698;19.050;2022-11-24T04:21:19;6.27;79.16
64937;SHT30;51452;47.698;19.050;2022-11-24T04:23:45;6.14;79.33
64937;SHT30;51452;47.698;19.050;2022-11-24T04:26:10;6.18;79.72
64937;SHT30;51452;47.698;19.050;2022-11-24T04:28:36;6.28;79.14
64937;SHT30;51452;47.698;19.050;2022-11-24T04:31:03;6.22;78.91
64937;SHT30;51452;47.698;19.050;2022-11-24T04:33:29;6.32;78.72
64937;SHT30;51452;47.698;19.050;2022-11-24T04:35:54;6.34;78.46
64937;SHT30;51452;47.698;19.050;2022-11-24T04:38:20;6.46;78.35
64937;SHT30;51452;47.698;19.050;2022-11-24T04:40:45;6.44;78.34
64937;SHT30;51452;47.698;19.050;2022-11-24T04:43:10;6.45;78.40
64937;SHT30;51452;47.698;19.050;2022-11-24T04:45:36;6.42;77.81
64937;SHT30;51452;47.698;19.050;2022-11-24T04:48:03;6.48;77.51
64937;SHT30;51452;47.698;19.050;2022-11-24T04:50:28;6.49;77.30
64937;SHT30;51452;47.698;19.050;2022-11-24T04:52:54;6.46;77.18
64937;SHT30;51452;47.698;19.050;2022-11-24T04:55:19;6.44;77.14
64937;SHT30;51452;47.698;19.050;2022-11-24T04:57:44;6.40;77.37
64937;SHT30;51452;47.698;19.050;2022-11-24T05:00:10;6.48;77.67
64937;SHT30;51452;47.698;19.050;2022-11-24T05:02:36;6.48;77.45
64937;SHT30;51452;47.698;19.050;2022-11-24T05:05:03;6.52;77.44
64937;SHT30;51452;47.698;19.050;2022-11-24T05:07:28;6.53;77.21
64937;SHT30;51452;47.698;19.050;2022-11-24T05:09:53;6.52;77.59
64937;SHT30;51452;47.698;19.050;2022-11-24T05:12:37;6.34;78.01
64937;SHT30;51452;47.698;19.050;2022-11-24T05:15:04;6.52;77.41
64937;SHT30;51452;47.698;19.050;2022-11-24T05:17:32;6.61;77.73
64937;SHT30;51452;47.698;19.050;2022-11-24T05:19:58;6.65;77.84
64937;SHT30;51452;47.698;19.050;2022-11-24T05:22:24;6.69;78.01
64937;SHT30;51452;47.698;19.050;2022-11-24T05:24:50;6.73;78.05
64937;SHT30;51452;47.698;19.050;2022-11-24T05:27:15;6.82;77.90
64937;SHT30;51452;47.698;19.050;2022-11-24T05:29:40;6.82;77.92
64937;SHT30;51452;47.698;19.050;2022-11-24T05:32:06;6.62;77.19
64937;SHT30;51452;47.698;19.050;2022-11-24T05:34:31;6.67;77.81
64937;SHT30;51452;47.698;19.050;2022-11-24T05:36:59;6.58;76.48
64937;SHT30;51452;47.698;19.050;2022-11-24T05:39:36;6.38;77.39
64937;SHT30;51452;47.698;19.050;2022-11-24T05:42:03;6.41;77.34
64937;SHT30;51452;47.698;19.050;2022-11-24T05:44:49;6.52;77.61
64937;SHT30;51452;47.698;19.050;2022-11-24T05:47:14;6.62;77.58
64937;SHT30;51452;47.698;19.050;2022-11-24T05:49:39;6.55;76.54
64937;SHT30;51452;47.698;19.050;2022-11-24T05:52:05;6.53;76.34
64937;SHT30;51452;47.698;19.050;2022-11-24T05:54:30;6.56;76.40
64937;SHT30;51452;47.698;19.050;2022-11-24T05:56:56;6.55;76.82
64937;SHT30;51452;47.698;19.050;2022-11-24T05:59:21;6.68;76.82
64937;SHT30;51452;47.698;19.050;2022-11-24T06:01:46;6.68;75.79
64937;SHT30;51452;47.698;19.050;2022-11-24T06:04:12;6.61;76.76
64937;SHT30;51452;47.698;19.050;2022-11-24T06:06:37;6.68;75.57
64937;SHT30;51452;47.698;19.050;2022-11-24T06:09:02;6.68;75.43
64937;SHT30;51452;47.698;19.050;2022-11-24T06:11:29;6.55;75.74
64937;SHT30;51452;47.698;19.050;2022-11-24T06:13:54;6.59;75.06
64937;SHT30;51452;47.698;19.050;2022-11-24T06:16:19;6.64;75.72
64937;SHT30;51452;47.698;19.050;2022-11-24T06:18:45;6.55;73.84
64937;SHT30;51452;47.698;19.050;2022-11-24T06:21:10;6.49;73.91
64937;SHT30;51452;47.698;19.050;2022-11-24T06:23:35;6.46;74.46
64937;SHT30;51452;47.698;19.050;2022-11-24T06:26:01;6.42;73.46
64937;SHT30;51452;47.698;19.050;2022-11-24T06:28:26;6.45;73.96
64937;SHT30;51452;47.698;19.050;2022-11-24T06:30:52;6.31;74.24
64937;SHT30;51452;47.698;19.050;2022-11-24T06:33:18;6.32;75.00
64937;SHT30;51452;47.698;19.050;2022-11-24T06:35:43;6.22;74.18
64937;SHT30;51452;47.698;19.050;2022-11-24T06:38:09;6.32;74.28
64937;SHT30;51452;47.698;19.050;2022-11-24T06:40:34;6.42;73.88
64937;SHT30;51452;47.698;19.050;2022-11-24T06:42:59;6.48;73.53
64937;SHT30;51452;47.698;19.050;2022-11-24T06:45:24;6.38;73.82
64937;SHT30;51452;47.698;19.050;2022-11-24T06:47:53;6.46;73.50
64937;SHT30;51452;47.698;19.050;2022-11-24T06:50:19;6.41;73.30
64937;SHT30;51452;47.698;19.050;2022-11-24T06:52:44;6.49;73.25
64937;SHT30;51452;47.698;19.050;2022-11-24T06:55:10;6.44;71.73
64937;SHT30;51452;47.698;19.050;2022-11-24T06:57:35;6.41;71.28
64937;SHT30;51452;47.698;19.050;2022-11-24T07:00:02;6.37;72.21
64937;SHT30;51452;47.698;19.050;2022-11-24T07:02:28;6.32;72.19
64937;SHT30;51452;47.698;19.050;2022-11-24T07:04:53;6.38;71.98
64937;SHT30;51452;47.698;19.050;2022-11-24T07:07:18;6.38;71.71
64937;SHT30;51452;47.698;19.050;2022-11-24T07:09:44;6.35;71.89
64937;SHT30;51452;47.698;19.050;2022-11-24T07:12:09;6.24;71.07
64937;SHT30;51452;47.698;19.050;2022-11-24T07:14:34;6.21;71.63
64937;SHT30;51452;47.698;19.050;2022-11-24T07:17:00;6.22;70.29
64937;SHT30;51452;47.698;19.050;2022-11-24T07:19:26;6.28;70.25
64937;SHT30;51452;47.698;19.050;2022-11-24T07:21:52;6.31;69.93
64937;SHT30;51452;47.698;19.050;2022-11-24T07:24:17;6.35;71.84
64937;SHT30;51452;47.698;19.050;2022-11-24T07:26:43;6.37;70.68
64937;SHT30;51452;47.698;19.050;2022-11-24T07:29:08;6.31;69.61
64937;SHT30;51452;47.698;19.050;2022-11-24T07:31:34;6.32;69.49
64937;SHT30;51452;47.698;19.050;2022-11-24T07:33:59;6.37;69.65
64937;SHT30;51452;47.698;19.050;2022-11-24T07:36:25;6.31;69.72
64937;SHT30;51452;47.698;19.050;2022-11-24T07:38:50;6.37;69.68
64937;SHT30;51452;47.698;19.050;2022-11-24T07:41:17;6.27;69.40
64937;SHT30;51452;47.698;19.050;2022-11-24T07:43:43;6.24;69.00
64937;SHT30;51452;47.698;19.050;2022-11-24T07:46:13;6.28;70.46
64937;SHT30;51452;47.698;19.050;2022-11-24T07:48:39;6.38;69.54
64937;SHT30;51452;47.698;19.050;2022-11-24T07:51:05;6.38;68.63
64937;SHT30;51452;47.698;19.050;2022-11-24T07:53:32;6.40;68.75
64937;SHT30;51452;47.698;19.050;2022-11-24T07:55:59;6.32;67.91
64937;SHT30;51452;47.698;19.050;2022-11-24T07:58:26;6.46;67.55
64937;SHT30;51452;47.698;19.050;2022-11-24T08:00:52;6.55;67.90
64937;SHT30;51452;47.698;19.050;2022-11-24T08:03:18;6.59;67.27
64937;SHT30;51452;47.698;19.050;2022-11-24T08:05:52;6.72;67.14
64937;SHT30;51452;47.698;19.050;2022-11-24T08:08:17;6.67;67.64
64937;SHT30;51452;47.698;19.050;2022-11-24T08:10:43;6.76;67.61
64937;SHT30;51452;47.698;19.050;2022-11-24T08:13:08;6.73;66.59
64937;SHT30;51452;47.698;19.050;2022-11-24T08:15:33;6.72;67.06
64937;SHT30;51452;47.698;19.050;2022-11-24T08:18:00;6.86;67.81
64937;SHT30;51452;47.698;19.050;2022-11-24T08:20:25;6.83;67.30
64937;SHT30;51452;47.698;19.050;2022-11-24T08:22:55;6.81;67.72
64937;SHT30;51452;47.698;19.050;2022-11-24T08:25:21;6.79;68.22
64937;SHT30;51452;47.698;19.050;2022-11-24T08:27:49;6.95;68.46
64937;SHT30;51452;47.698;19.050;2022-11-24T08:30:14;6.83;67.18
64937;SHT30;51452;47.698;19.050;2022-11-24T08:32:40;6.85;67.15
64937;SHT30;51452;47.698;19.050;2022-11-24T08:35:07;6.68;66.91
64937;SHT30;51452;47.698;19.050;2022-11-24T08:37:32;6.56;66.92
64937;SHT30;51452;47.698;19.050;2022-11-24T08:39:58;6.67;67.52
64937;SHT30;51452;47.698;19.050;2022-11-24T08:42:23;6.61;66.48
64937;SHT30;51452;47.698;19.050;2022-11-24T08:44:48;6.58;67.09
64937;SHT30;51452;47.698;19.050;2022-11-24T08:47:13;6.49;67.25
64937;SHT30;51452;47.698;19.050;2022-11-24T08:49:39;6.48;67.96
64937;SHT30;51452;47.698;19.050;2022-11-24T08:52:05;6.42;67.53
64937;SHT30;51452;47.698;19.050;2022-11-24T08:54:30;6.37;68.19
64937;SHT30;51452;47.698;19.050;2022-11-24T08:56:56;6.28;68.12
64937;SHT30;51452;47.698;19.050;2022-11-24T08:59:21;6.27;68.55
64937;SHT30;51452;47.698;19.050;2022-11-24T09:01:47;6.21;67.97
64937;SHT30;51452;47.698;19.050;2022-11-24T09:04:13;6.18;68.68
64937;SHT30;51452;47.698;19.050;2022-11-24T09:06:39;6.20;67.82
64937;SHT30;51452;47.698;19.050;2022-11-24T09:09:04;6.28;67.96
64937;SHT30;51452;47.698;19.050;2022-11-24T09:11:32;6.30;67.49
64937;SHT30;51452;47.698;19.050;2022-11-24T09:13:58;6.37;67.77
64937;SHT30;51452;47.698;19.050;2022-11-24T09:16:25;6.37;66.57
64937;SHT30;51452;47.698;19.050;2022-11-24T09:18:59;6.37;67.03
64937;SHT30;51452;47.698;19.050;2022-11-24T09:21:25;6.40;67.34
64937;SHT30;51452;47.698;19.050;2022-11-24T09:23:52;6.41;67.27
64937;SHT30;51452;47.698;19.050;2022-11-24T09:26:20;6.49;67.89
64937;SHT30;51452;47.698;19.050;2022-11-24T09:28:45;6.52;67.75
64937;SHT30;51452;47.698;19.050;2022-11-24T09:31:14;6.48;67.89
64937;SHT30;51452;47.698;19.050;2022-11-24T09:33:40;6.51;68.60
64937;SHT30;51452;47.698;19.050;2022-11-24T09:36:06;6.49;69.07
64937;SHT30;51452;47.698;19.050;2022-11-24T09:38:32;6.48;68.64
64937;SHT30;51452;47.698;19.050;2022-11-24T09:43:58;6.55;68.80
64937;SHT30;51452;47.698;19.050;2022-11-24T09:46:46;6.48;69.47
64937;SHT30;51452;47.698;19.050;2022-11-24T09:49:17;6.46;69.45
64937;SHT30;51452;47.698;19.050;2022-11-24T09:51:50;6.48;69.84
64937;SHT30;51452;47.698;19.050;2022-11-24T09:54:24;6.44;69.58
64937;SHT30;51452;47.698;19.050;2022-11-24T09:56:51;6.42;70.06
64937;SHT30;51452;47.698;19.050;2022-11-24T09:59:26;6.41;70.14
64937;SHT30;51452;47.698;19.050;2022-11-24T10:01:52;6.31;70.85
64937;SHT30;51452;47.698;19.050;2022-11-24T10:04:23;6.44;70.99
64937;SHT30;51452;47.698;19.050;2022-11-24T10:18:06;6.81;69.59
64937;SHT30;51452;47.698;19.050;2022-11-24T10:23:31;6.82;69.35
64937;SHT30;51452;47.698;19.050;2022-11-24T10:26:00;6.75;69.26
64937;SHT30;51452;47.698;19.050;2022-11-24T10:28:33;6.76;69.71
64937;SHT30;51452;47.698;19.050;2022-11-24T10:31:32;6.79;69.44
64937;SHT30;51452;47.698;19.050;2022-11-24T10:34:16;6.76;68.97
64937;SHT30;51452;47.698;19.050;2022-11-24T10:39:20;6.97;69.30
64937;SHT30;51452;47.698;19.050;2022-11-24T10:42:02;7.04;69.30
64937;SHT30;51452;47.698;19.050;2022-11-24T10:44:29;7.07;69.87
64937;SHT30;51452;47.698;19.050;2022-11-24T10:46:55;7.03;69.65
64937;SHT30;51452;47.698;19.050;2022-11-24T10:49:31;7.07;69.82
64937;SHT30;51452;47.698;19.050;2022-11-24T10:52:05;7.10;70.27
64937;SHT30;51452;47.698;19.050;2022-11-24T10:54:32;7.16;70.53
64937;SHT30;51452;47.698;19.050;2022-11-24T10:57:00;7.24;70.82
64937;SHT30;51452;47.698;19.050;2022-11-24T10:59:35;7.21;71.35
64937;SHT30;51452;47.698;19.050;2022-11-24T11:02:02;7.23;71.31
64937;SHT30;51452;47.698;19.050;2022-11-24T11:04:30;7.24;71.00
64937;SHT30;51452;47.698;19.050;2022-11-24T11:07:13;7.21;71.15
64937;SHT30;51452;47.698;19.050;2022-11-24T11:09:39;7.09;71.40
64937;SHT30;51452;47.698;19.050;2022-11-24T11:12:10;7.03;71.57
64937;SHT30;51452;47.698;19.050;2022-11-24T11:14:35;7.12;71.99
64937;SHT30;51452;47.698;19.050;2022-11-24T11:17:01;7.16;71.45
64937;SHT30;51452;47.698;19.050;2022-11-24T11:19:41;7.19;70.63
64937;SHT30;51452;47.698;19.050;2022-11-24T11:24:37;7.12;70.43
64937;SHT30;51452;47.698;19.050;2022-11-24T11:27:21;7.16;69.99
64937;SHT30;51452;47.698;19.050;2022-11-24T11:29:47;7.12;70.26
64937;SHT30;51452;47.698;19.050;2022-11-24T11:32:17;7.14;69.44
64937;SHT30;51452;47.698;19.050;2022-11-24T11:34:43;7.14;69.53
64937;SHT30;51452;47.698;19.050;2022-11-24T11:37:11;7.26;68.50
64937;SHT30;51452;47.698;19.050;2022-11-24T11:39:49;7.23;68.11
64937;SHT30;51452;47.698;19.050;2022-11-24T11:45:15;7.34;68.16
64937;SHT30;51452;47.698;19.050;2022-11-24T11:47:54;7.50;68.12
64937;SHT30;51452;47.698;19.050;2022-11-24T11:50:24;7.64;68.37
64937;SHT30;51452;47.698;19.050;2022-11-24T11:55:32;7.75;68.60
64937;SHT30;51452;47.698;19.050;2022-11-24T12:07:04;7.82;69.12
64937;SHT30;51452;47.698;19.050;2022-11-24T12:12:24;7.93;69.51
64937;SHT30;51452;47.698;19.050;2022-11-24T12:17:50;8.01;68.51
64937;SHT30;51452;47.698;19.050;2022-11-24T12:20:41;7.93;69.03
64937;SHT30;51452;47.698;19.050;2022-11-24T12:26:04;7.96;69.21
64937;SHT30;51452;47.698;19.050;2022-11-24T12:28:41;7.85;69.34
64937;SHT30;51452;47.698;19.050;2022-11-24T12:31:35;7.86;70.12
64937;SHT30;51452;47.698;19.050;2022-11-24T12:34:22;7.95;70.46
64937;SHT30;51452;47.698;19.050;2022-11-24T12:39:34;8.01;69.92
64937;SHT30;51452;47.698;19.050;2022-11-24T12:42:12;7.91;69.32
64937;SHT30;51452;47.698;19.050;2022-11-24T12:47:34;7.78;68.87
64937;SHT30;51452;47.698;19.050;2022-11-24T12:52:43;7.86;69.12
64937;SHT30;51452;47.698;19.050;2022-11-24T12:55:18;7.81;69.67
64937;SHT30;51452;47.698;19.050;2022-11-24T13:00:37;7.91;69.74
64937;SHT30;51452;47.698;19.050;2022-11-24T13:06:01;8.05;69.44
64937;SHT30;51452;47.698;19.050;2022-11-24T13:08:27;8.16;68.94
64937;SHT30;51452;47.698;19.050;2022-11-24T13:10:53;8.17;68.69
64937;SHT30;51452;47.698;19.050;2022-11-24T13:13:21;8.19;69.06
64937;SHT30;51452;47.698;19.050;2022-11-24T13:37:03;7.57;70.79
64937;SHT30;51452;47.698;19.050;2022-11-24T13:40:00;7.58;70.77
64937;SHT30;51452;47.698;19.050;2022-11-24T13:42:28;7.60;70.38
64937;SHT30;51452;47.698;19.050;2022-11-24T13:44:55;7.55;70.38
64937;SHT30;51452;47.698;19.050;2022-11-24T13:49:51;7.64;70.37
64937;SHT30;51452;47.698;19.050;2022-11-24T13:57:43;7.41;70.37
64937;SHT30;51452;47.698;19.050;2022-11-24T14:02:48;7.40;70.69
64937;SHT30;51452;47.698;19.050;2022-11-24T14:05:15;7.35;71.19
64937;SHT30;51452;47.698;19.050;2022-11-24T14:07:44;7.31;70.65
64937;SHT30;51452;47.698;19.050;2022-11-24T14:10:43;7.33;70.57
64937;SHT30;51452;47.698;19.050;2022-11-24T14:13:29;7.44;70.78
64937;SHT30;51452;47.698;19.050;2022-11-24T14:18:31;7.41;71.03
64937;SHT30;51452;47.698;19.050;2022-11-24T14:20:58;7.37;71.11
64937;SHT30;51452;47.698;19.050;2022-11-24T14:23:23;7.43;71.17
64937;SHT30;51452;47.698;19.050;2022-11-24T14:25:50;7.44;71.16
64937;SHT30;51452;47.698;19.050;2022-11-24T14:28:23;7.46;71.17
64937;SHT30;51452;47.698;19.050;2022-11-24T14:30:50;7.35;71.33
64937;SHT30;51452;47.698;19.050;2022-11-24T14:33:18;7.35;71.57
64937;SHT30;51452;47.698;19.050;2022-11-24T14:35:46;7.35;71.50
64937;SHT30;51452;47.698;19.050;2022-11-24T14:38:12;7.31;72.03
64937;SHT30;51452;47.698;19.050;2022-11-24T14:43:17;7.30;72.34
64937;SHT30;51452;47.698;19.050;2022-11-24T14:45:48;7.28;72.36
64937;SHT30;51452;47.698;19.050;2022-11-24T14:48:15;7.28;72.59
64937;SHT30;51452;47.698;19.050;2022-11-24T14:50:41;7.27;72.72
64937;SHT30;51452;47.698;19.050;2022-11-24T14:53:14;7.34;72.63
64937;SHT30;51452;47.698;19.050;2022-11-24T14:55:40;7.24;73.02
64937;SHT30;51452;47.698;19.050;2022-11-24T14:58:20;7.16;73.06
64937;SHT30;51452;47.698;19.050;2022-11-24T15:01:15;7.14;73.12
64937;SHT30;51452;47.698;19.050;2022-11-24T15:03:41;7.16;72.95
64937;SHT30;51452;47.698;19.050;2022-11-24T15:06:15;7.16;72.85
64937;SHT30;51452;47.698;19.050;2022-11-24T15:08:44;7.17;72.85
64937;SHT30;51452;47.698;19.050;2022-11-24T15:11:11;7.19;73.29
64937;SHT30;51452;47.698;19.050;2022-11-24T15:13:37;7.19;73.00
64937;SHT30;51452;47.698;19.050;2022-11-24T15:16:07;7.13;73.01
64937;SHT30;51452;47.698;19.050;2022-11-24T15:18:43;7.19;72.63
64937;SHT30;51452;47.698;19.050;2022-11-24T15:21:09;7.20;72.89
64937;SHT30;51452;47.698;19.050;2022-11-24T15:23:35;7.16;73.14
64937;SHT30;51452;47.698;19.050;2022-11-24T15:28:27;7.14;73.10
64937;SHT30;51452;47.698;19.050;2022-11-24T15:30:55;7.12;72.97
64937;SHT30;51452;47.698;19.050;2022-11-24T15:33:23;7.12;73.42
64937;SHT30;51452;47.698;19.050;2022-11-24T15:35:48;7.12;73.21
64937;SHT30;51452;47.698;19.050;2022-11-24T15:38:15;7.07;73.34
64937;SHT30;51452;47.698;19.050;2022-11-24T15:40:42;7.06;73.50
64937;SHT30;51452;47.698;19.050;2022-11-24T15:43:29;7.03;73.42
64937;SHT30;51452;47.698;19.050;2022-11-24T15:45:56;7.03;73.53
64937;SHT30;51452;47.698;19.050;2022-11-24T15:48:21;7.03;73.57
64937;SHT30;51452;47.698;19.050;2022-11-24T15:50:47;7.03;73.94
64937;SHT30;51452;47.698;19.050;2022-11-24T15:53:24;7.00;73.74
64937;SHT30;51452;47.698;19.050;2022-11-24T15:55:52;6.95;73.80
64937;SHT30;51452;47.698;19.050;2022-11-24T15:58:20;6.86;73.71
64937;SHT30;51452;47.698;19.050;2022-11-24T16:00:45;6.82;73.74
64937;SHT30;51452;47.698;19.050;2022-11-24T16:03:11;6.82;73.87
64937;SHT30;51452;47.698;19.050;2022-11-24T16:05:37;6.76;74.31
64937;SHT30;51452;47.698;19.050;2022-11-24T16:08:04;6.72;74.09
64937;SHT30;51452;47.698;19.050;2022-11-24T16:10:35;6.72;73.91
64937;SHT30;51452;47.698;19.050;2022-11-24T16:13:00;6.72;74.31
64937;SHT30;51452;47.698;19.050;2022-11-24T16:15:26;6.73;74.30
64937;SHT30;51452;47.698;19.050;2022-11-24T16:17:51;6.71;74.60
64937;SHT30;51452;47.698;19.050;2022-11-24T16:20:17;6.72;74.53
64937;SHT30;51452;47.698;19.050;2022-11-24T16:22:42;6.65;74.73
64937;SHT30;51452;47.698;19.050;2022-11-24T16:25:08;6.61;74.60
64937;SHT30;51452;47.698;19.050;2022-11-24T16:27:34;6.67;74.67
64937;SHT30;51452;47.698;19.050;2022-11-24T16:29:59;6.61;74.89
64937;SHT30;51452;47.698;19.050;2022-11-24T16:32:25;6.58;74.90
64937;SHT30;51452;47.698;19.050;2022-11-24T16:34:51;6.55;74.90
64937;SHT30;51452;47.698;19.050;2022-11-24T16:37:16;6.58;74.73
64937;SHT30;51452;47.698;19.050;2022-11-24T16:39:41;6.64;74.71
64937;SHT30;51452;47.698;19.050;2022-11-24T16:42:07;6.51;74.77
64937;SHT30;51452;47.698;19.050;2022-11-24T16:44:32;6.48;74.97
64937;SHT30;51452;47.698;19.050;2022-11-24T16:46:58;6.38;75.38
64937;SHT30;51452;47.698;19.050;2022-11-24T16:49:24;6.37;75.32
64937;SHT30;51452;47.698;19.050;2022-11-24T16:51:49;6.37;75.40
64937;SHT30;51452;47.698;19.050;2022-11-24T16:54:14;6.31;75.30
64937;SHT30;51452;47.698;19.050;2022-11-24T16:56:40;6.35;75.25
64937;SHT30;51452;47.698;19.050;2022-11-24T16:59:05;6.37;75.14
64937;SHT30;51452;47.698;19.050;2022-11-24T17:01:31;6.31;75.04
64937;SHT30;51452;47.698;19.050;2022-11-24T17:03:57;6.28;75.04
64937;SHT30;51452;47.698;19.050;2022-11-24T17:06:23;6.22;75.02
64937;SHT30;51452;47.698;19.050;2022-11-24T17:08:48;6.27;75.06
64937;SHT30;51452;47.698;19.050;2022-11-24T17:11:19;6.24;74.85
64937;SHT30;51452;47.698;19.050;2022-11-24T17:13:46;6.21;74.95
64937;SHT30;51452;47.698;19.050;2022-11-24T17:16:14;6.24;74.97